• Join FlightAware (Why Join?)
  • Login
  • US Flag 
10:16PM EST


 

Airport Tracker/Info


-or-


 

Live Flight TrackerFlight Track Log ✈ SWA914 ✈ 25-May-2013 ✈ KLAS - KSMF

Flight Track Log - Related Links

Times and Time Zones

All times are in EDT time to prevent confusion due to time zone crossing. See the SWA914 flight status page for this flight to view local times or setup timezone preferences in your user account.

Time Position Orientation Groundspeed Altitude Reporting Facility
EDT Latitude Longitude Course Direction KTS MPH feet Rate Location/Type
09:57PM 36.0742 -115.1689 270° West 148 170 3,300  Level Los Angeles Center
09:58PM 36.0744 -115.2300 270° West 218 251 4,900 1,860 Climbing Los Angeles Center
09:59PM 36.0483 -115.2692 230° Southwest 239 275 6,300 1,860 Climbing Los Angeles Center
09:59PM 36.0142 -115.2817 196° South 257 296 7,000 1,560 Climbing Los Angeles Center
10:00PM 35.9794 -115.2933 195° South 253 291 7,900 1,800 Climbing Los Angeles Center
10:01PM 35.9283 -115.3542 224° Southwest 260 299 9,900 2,100 Climbing Los Angeles Center
10:02PM 35.8864 -115.4394 239° Southwest 286 329 12,200 2,160 Climbing Los Angeles Center
10:03PM 35.8881 -115.5528 271° West 323 372 14,400 2,280 Climbing Los Angeles Center
10:04PM 35.8906 -115.6814 271° West 350 403 16,900 2,460 Climbing Los Angeles Center
10:05PM 35.9014 -115.8019 276° West 355 409 19,500 2,100 Climbing Los Angeles Center
10:06PM 35.9686 -115.9000 310° West 375 432 21,200 1,680 Climbing Los Angeles Center
10:07PM 36.0408 -116.0008 312° West 390 449 23,000 1,680 Climbing Los Angeles Center
10:08PM 36.1175 -116.1081 312° West 395 455 24,700 1,560 Climbing Los Angeles Center
10:09PM 36.1917 -116.2147 311° West 404 465 26,200 1,260 Climbing Los Angeles Center
10:10PM 36.2611 -116.3106 312° West 415 478 27,400 1,200 Climbing Los Angeles Center
10:11PM 36.3389 -116.4222 311° West 426 490 28,700 1,560 Climbing Los Angeles Center
10:12PM 36.4164 -116.5333 311° West 427 491 30,600 1,680 Climbing Los Angeles Center
10:13PM 36.5067 -116.6617 311° West 416 479 32,200 1,080 Climbing Los Angeles Center
10:14PM 36.5628 -116.7397 312° West 413 475 32,900 840 Climbing Los Angeles Center
10:15PM 36.6817 -116.8367 327° Northwest 427 491 34,000 540 Climbing Los Angeles Center
10:16PM 36.7889 -116.9172 329° Northwest 425 489 34,000  Level Los Angeles Center
10:17PM 36.8628 -116.9742 328° Northwest 422 486 34,000  Level Los Angeles Center
10:18PM 36.9831 -117.0656 329° Northwest 420 483 34,000  Level Los Angeles Center
10:19PM 37.0689 -117.1622 318° Northwest 419 482 34,000  Level Los Angeles Center
10:20PM 37.1611 -117.2897 312° West 412 474 34,000  Level Los Angeles Center
10:21PM 37.2386 -117.3958 313° West 412 474 34,000  Level Los Angeles Center
10:22PM 37.3142 -117.5053 311° West 412 474 34,000  Level Los Angeles Center
10:23PM 37.3914 -117.6158 311° West 417 480 34,000  Level Los Angeles Center
10:24PM 37.4689 -117.7258 312° West 420 483 34,000  Level Oakland Center
10:25PM 37.5469 -117.8378 311° West 422 486 34,000  Level Oakland Center
10:26PM 37.6264 -117.9519 311° West 428 493 34,000  Level Oakland Center
10:27PM 37.7050 -118.0650 311° West 427 491 34,000  Level Oakland Center
10:28PM 37.7831 -118.1794 311° West 427 491 34,000  Level Oakland Center
10:29PM 37.8622 -118.2925 312° West 428 493 34,000  Level Oakland Center
10:30PM 37.9397 -118.4050 311° West 426 490 34,000  Level Oakland Center
10:31PM 38.0164 -118.5175 311° West 421 484 34,000  Level Oakland Center
10:32PM 38.0936 -118.6297 311° West 421 484 34,000  Level Oakland Center
10:33PM 38.1686 -118.7417 310° West 420 483 34,000  Level Oakland Center
10:34PM 38.2444 -118.8531 311° West 419 482 34,000  Level Oakland Center
10:35PM 38.3206 -118.9650 311° West 417 480 34,000  Level Oakland Center
10:36PM 38.3958 -119.0778 310° West 416 479 34,000  Level Oakland Center
10:37PM 38.4694 -119.1886 310° West 411 473 34,000  Level Oakland Center
10:38PM 38.5442 -119.2997 311° West 411 473 34,000  Level Oakland Center
10:39PM 38.6019 -119.4233 301° West 406 467 34,000  Level Oakland Center
10:40PM 38.6347 -119.5547 288° West 391 450 34,000 -660 Level Oakland Center
10:41PM 38.6694 -119.6925 288° West 403 464 32,700 -1,860 Descending Oakland Center
10:42PM 38.7089 -119.8467 288° West 404 465 30,300 -2,820 Descending Oakland Center
10:43PM 38.7428 -119.9817 288° West 401 461 27,100 -3,300 Descending Oakland Center
10:44PM 38.7775 -120.1197 288° West 406 467 23,600 -3,180 Descending Oakland Center
10:45PM 38.8117 -120.2547 288° West 401 461 20,800 -2,640 Descending Oakland Center
10:46PM 38.8433 -120.3847 287° West 386 444 18,300 -2,340 Descending Oakland Center
10:47PM 38.8725 -120.5072 287° West 364 419 16,100 -1,500 Descending Oakland Center
10:48PM 38.9003 -120.6183 288° West 335 386 15,300 -2,100 Descending Oakland Center
10:49PM 38.9272 -120.7317 287° West 336 387 11,900 -2,640 Descending Oakland Center
10:50PM 38.9569 -120.8522 288° West 354 407 10,000 -960 Descending Oakland Center
10:51PM 38.9811 -120.9531 287° West 298 343 10,000 -600 Level Oakland Center
10:52PM 38.9794 -121.0519 269° West 287 330 8,800 -1,440 Descending Oakland Center
10:53PM 38.9550 -121.1439 251° West 276 318 7,200 -1,620 Descending Oakland Center
10:54PM 38.9333 -121.2167 249° West 272 313 6,200 -1,500 Descending Northern Cal TRACON
10:55PM 38.9167 -121.3000 256° West 261 300 5,000 -1,200 Descending Northern Cal TRACON
10:56PM 38.8833 -121.3833 243° Southwest 269 310 3,900 -1,140 Descending Northern Cal TRACON
10:57PM 38.8500 -121.4667 243° Southwest 256 295 2,700 -1,080 Descending Northern Cal TRACON
10:58PM 38.8167 -121.5500 243° Southwest 237 273 1,800 -600 Descending Northern Cal TRACON
10:59PM 38.7833 -121.6000 229° Southwest 185 213 1,500 -540 Descending Northern Cal TRACON
11:00PM 38.7500 -121.6000 180° South 134 154 800 -720 Descending Northern Cal TRACON
11:01PM 38.7167 -121.6000 180° South 129 148 100 -720 Descending Northern Cal TRACON
11:03PM 38.6954 -121.5908 218° Southwest  Level Estimated
11:10PM 38.6954 -121.5908 218° Southwest  Level Estimated